createdAt,value
2023-03-16T00:00:23.563Z,1.48
2023-03-16T00:15:23.537Z,1.33
2023-03-16T00:30:23.522Z,1.30
2023-03-16T00:45:23.550Z,1.20
2023-03-16T01:00:23.646Z,1.00
2023-03-16T01:15:23.742Z,0.85
2023-03-16T01:30:23.671Z,0.82
2023-03-16T01:45:23.886Z,0.82
2023-03-16T02:00:24.008Z,0.90
2023-03-16T02:15:23.992Z,0.85
2023-03-16T02:28:57.415Z,2.00
2023-03-16T02:33:24.496Z,2.00
2023-03-16T02:48:12.489Z,0.82
2023-03-16T03:03:12.822Z,0.70
2023-03-16T03:15:23.777Z,1.20
2023-03-16T03:30:23.565Z,0.62
2023-03-16T03:45:23.572Z,0.47
2023-03-16T04:00:23.770Z,0.38
2023-03-16T04:15:23.851Z,0.12
2023-03-16T04:30:23.780Z,0.43
2023-03-16T04:45:32.956Z,0.38
2023-03-16T05:00:32.913Z,0.53
2023-03-16T05:15:23.348Z,0.40
2023-03-16T05:30:23.055Z,0.35
2023-03-16T05:45:23.067Z,0.40
2023-03-16T06:00:23.369Z,0.28
2023-03-16T06:15:23.528Z,0.47
2023-03-16T06:30:23.487Z,0.32
2023-03-16T06:45:23.587Z,0.57
2023-03-16T07:00:23.627Z,0.28
2023-03-16T07:15:23.712Z,0.40
2023-03-16T07:30:23.432Z,0.80
2023-03-16T07:45:23.851Z,1.02
2023-03-16T08:00:23.653Z,1.37
2023-03-16T08:15:23.861Z,1.60
2023-03-16T08:30:23.976Z,2.10
2023-03-16T08:45:23.977Z,2.45
2023-03-16T09:00:24.353Z,2.77
2023-03-16T09:15:23.861Z,3.10
2023-03-16T09:30:23.936Z,3.62
2023-03-16T09:45:33.275Z,4.22
2023-03-16T10:00:33.038Z,4.57
2023-03-16T10:08:48.461Z,5.00
2023-03-16T10:15:23.413Z,5.15
2023-03-16T10:30:23.742Z,5.93
2023-03-16T10:45:23.797Z,6.50
2023-03-16T11:00:24.342Z,7.20
2023-03-16T11:15:26.235Z,7.53
2023-03-16T11:30:23.340Z,8.25
2023-03-16T11:45:23.427Z,8.85
2023-03-16T12:00:23.248Z,9.20
2023-03-16T12:15:23.326Z,9.73
2023-03-16T12:30:23.370Z,9.77
2023-03-16T12:45:23.335Z,10.10
2023-03-16T13:00:23.527Z,10.25
2023-03-16T13:15:23.492Z,10.43
2023-03-16T13:30:23.720Z,10.65
2023-03-16T13:45:23.645Z,11.00
2023-03-16T14:00:23.733Z,11.37
2023-03-16T14:15:23.715Z,11.55
2023-03-16T14:30:23.768Z,11.83
2023-03-16T14:45:23.810Z,12.20
2023-03-16T15:00:23.950Z,12.35
2023-03-16T15:15:23.860Z,12.38
2023-03-16T15:30:23.883Z,12.38
2023-03-16T15:45:23.735Z,12.38
2023-03-16T16:00:33.073Z,12.33
2023-03-16T16:15:22.932Z,12.30
2023-03-16T16:30:23.069Z,11.95
2023-03-16T16:45:23.192Z,11.75
2023-03-16T17:00:23.006Z,11.52
2023-03-16T17:15:23.223Z,11.20
2023-03-16T17:30:23.489Z,11.02
2023-03-16T17:45:23.421Z,10.70
2023-03-16T18:00:23.436Z,10.18
2023-03-16T18:15:23.344Z,9.65
2023-03-16T18:30:23.588Z,9.20
2023-03-16T18:45:23.425Z,9.23
2023-03-16T19:00:23.758Z,8.95
2023-03-16T19:15:23.658Z,9.05
2023-03-16T19:30:23.800Z,8.95
2023-03-16T19:45:26.324Z,8.88
2023-03-16T20:00:23.955Z,8.87
2023-03-16T20:15:23.677Z,8.27
2023-03-16T20:30:23.685Z,7.88
2023-03-16T20:45:23.878Z,7.60
2023-03-16T21:00:23.922Z,7.32
2023-03-16T21:15:33.052Z,6.88
2023-03-16T21:30:33.024Z,6.68
2023-03-16T21:45:33.037Z,6.60
2023-03-16T22:00:33.098Z,6.32
2023-03-16T22:15:23.177Z,6.23
2023-03-16T22:30:23.187Z,5.97
2023-03-16T22:45:23.458Z,5.72
2023-03-16T23:00:49.701Z,5.85
2023-03-16T23:15:24.001Z,5.53
2023-03-16T23:30:33.244Z,5.03
2023-03-16T23:45:33.012Z,4.80
